sensor_id;sensor_type;location;lat;lon;timestamp;pressure;altitude;pressure_sealevel;temperature;humidity
27712;BME280;2377;51.734;8.950;2023-11-21T00:00:45;97220.16;;;8.46;100.00
27712;BME280;2377;51.734;8.950;2023-11-21T00:03:13;97231.22;;;8.40;100.00
27712;BME280;2377;51.734;8.950;2023-11-21T00:05:41;97231.78;;;8.42;100.00
27712;BME280;2377;51.734;8.950;2023-11-21T00:08:08;97223.75;;;8.38;100.00
27712;BME280;2377;51.734;8.950;2023-11-21T00:10:36;97234.13;;;8.37;100.00
27712;BME280;2377;51.734;8.950;2023-11-21T00:13:04;97229.03;;;8.37;100.00
27712;BME280;2377;51.734;8.950;2023-11-21T00:15:31;97223.94;;;8.37;100.00
27712;BME280;2377;51.734;8.950;2023-11-21T00:18:00;97229.03;;;8.37;100.00
27712;BME280;2377;51.734;8.950;2023-11-21T00:20:27;97230.03;;;8.36;100.00
27712;BME280;2377;51.734;8.950;2023-11-21T00:22:56;97224.75;;;8.37;100.00
27712;BME280;2377;51.734;8.950;2023-11-21T00:25:23;97236.91;;;8.35;100.00
27712;BME280;2377;51.734;8.950;2023-11-21T00:27:50;97241.56;;;8.38;100.00
27712;BME280;2377;51.734;8.950;2023-11-21T00:30:20;97232.16;;;8.39;100.00
27712;BME280;2377;51.734;8.950;2023-11-21T00:32:48;97238.84;;;8.40;100.00
27712;BME280;2377;51.734;8.950;2023-11-21T00:35:16;97242.50;;;8.44;100.00
27712;BME280;2377;51.734;8.950;2023-11-21T00:37:44;97230.34;;;8.46;100.00
27712;BME280;2377;51.734;8.950;2023-11-21T00:40:14;97232.88;;;8.46;100.00
27712;BME280;2377;51.734;8.950;2023-11-21T00:42:41;97235.44;;;8.46;100.00
27712;BME280;2377;51.734;8.950;2023-11-21T00:45:09;97239.41;;;8.42;100.00
27712;BME280;2377;51.734;8.950;2023-11-21T00:47:39;97237.69;;;8.36;100.00
27712;BME280;2377;51.734;8.950;2023-11-21T00:50:07;97242.63;;;8.31;100.00
27712;BME280;2377;51.734;8.950;2023-11-21T00:52:37;97247.34;;;8.27;100.00
27712;BME280;2377;51.734;8.950;2023-11-21T00:55:07;97248.00;;;8.22;100.00
27712;BME280;2377;51.734;8.950;2023-11-21T00:57:36;97249.41;;;8.18;100.00
27712;BME280;2377;51.734;8.950;2023-11-21T01:00:05;97254.91;;;8.15;100.00
27712;BME280;2377;51.734;8.950;2023-11-21T01:02:34;97254.38;;;8.07;100.00
27712;BME280;2377;51.734;8.950;2023-11-21T01:05:02;97253.66;;;7.99;100.00
27712;BME280;2377;51.734;8.950;2023-11-21T01:07:30;97254.16;;;7.90;100.00
27712;BME280;2377;51.734;8.950;2023-11-21T01:09:58;97268.69;;;7.82;100.00
27712;BME280;2377;51.734;8.950;2023-11-21T01:12:26;97268.34;;;7.79;100.00
27712;BME280;2377;51.734;8.950;2023-11-21T01:14:53;97268.72;;;7.76;100.00
27712;BME280;2377;51.734;8.950;2023-11-21T01:17:20;97277.56;;;7.73;100.00
27712;BME280;2377;51.734;8.950;2023-11-21T01:19:49;97279.38;;;7.66;100.00
27712;BME280;2377;51.734;8.950;2023-11-21T01:22:17;97272.38;;;7.61;100.00
27712;BME280;2377;51.734;8.950;2023-11-21T01:24:48;97276.09;;;7.59;100.00
27712;BME280;2377;51.734;8.950;2023-11-21T01:27:19;97266.50;;;7.61;100.00
27712;BME280;2377;51.734;8.950;2023-11-21T01:29:47;97267.28;;;7.61;100.00
27712;BME280;2377;51.734;8.950;2023-11-21T01:32:14;97271.59;;;7.61;100.00
27712;BME280;2377;51.734;8.950;2023-11-21T01:34:41;97279.84;;;7.56;100.00
27712;BME280;2377;51.734;8.950;2023-11-21T01:37:08;97275.38;;;7.52;100.00
27712;BME280;2377;51.734;8.950;2023-11-21T01:39:37;97274.44;;;7.46;100.00
27712;BME280;2377;51.734;8.950;2023-11-21T01:42:07;97278.38;;;7.42;100.00
27712;BME280;2377;51.734;8.950;2023-11-21T01:44:36;97284.25;;;7.36;100.00
27712;BME280;2377;51.734;8.950;2023-11-21T01:47:04;97283.91;;;7.32;100.00
27712;BME280;2377;51.734;8.950;2023-11-21T01:49:32;97281.78;;;7.29;100.00
27712;BME280;2377;51.734;8.950;2023-11-21T01:52:01;97280.41;;;7.27;100.00
27712;BME280;2377;51.734;8.950;2023-11-21T01:54:33;97289.78;;;7.26;100.00
27712;BME280;2377;51.734;8.950;2023-11-21T01:57:06;97280.44;;;7.20;100.00
27712;BME280;2377;51.734;8.950;2023-11-21T01:59:37;97282.41;;;7.18;100.00
27712;BME280;2377;51.734;8.950;2023-11-21T02:02:06;97283.97;;;7.19;100.00
27712;BME280;2377;51.734;8.950;2023-11-21T02:04:37;97277.69;;;7.22;100.00
27712;BME280;2377;51.734;8.950;2023-11-21T02:07:05;97275.38;;;7.20;100.00
27712;BME280;2377;51.734;8.950;2023-11-21T02:09:41;97278.50;;;7.22;100.00
27712;BME280;2377;51.734;8.950;2023-11-21T02:12:09;97280.63;;;7.25;100.00
27712;BME280;2377;51.734;8.950;2023-11-21T02:14:38;97280.63;;;7.25;100.00
27712;BME280;2377;51.734;8.950;2023-11-21T02:17:05;97279.63;;;7.26;100.00
27712;BME280;2377;51.734;8.950;2023-11-21T02:19:33;97280.03;;;7.23;100.00
27712;BME280;2377;51.734;8.950;2023-11-21T02:22:02;97287.84;;;7.22;100.00
27712;BME280;2377;51.734;8.950;2023-11-21T02:24:33;97288.06;;;7.20;100.00
27712;BME280;2377;51.734;8.950;2023-11-21T02:27:04;97296.28;;;7.22;100.00
27712;BME280;2377;51.734;8.950;2023-11-21T02:29:32;97293.31;;;7.25;100.00
27712;BME280;2377;51.734;8.950;2023-11-21T02:31:59;97291.75;;;7.24;100.00
27712;BME280;2377;51.734;8.950;2023-11-21T02:34:26;97284.69;;;7.26;100.00
27712;BME280;2377;51.734;8.950;2023-11-21T02:36:54;97294.47;;;7.29;100.00
27712;BME280;2377;51.734;8.950;2023-11-21T02:39:23;97293.13;;;7.27;100.00
27712;BME280;2377;51.734;8.950;2023-11-21T02:41:58;97291.56;;;7.26;100.00
27712;BME280;2377;51.734;8.950;2023-11-21T02:44:25;97284.69;;;7.26;100.00
27712;BME280;2377;51.734;8.950;2023-11-21T02:46:56;97290.38;;;7.28;100.00
27712;BME280;2377;51.734;8.950;2023-11-21T02:49:23;97289.75;;;7.33;100.00
27712;BME280;2377;51.734;8.950;2023-11-21T02:51:54;97302.84;;;7.36;100.00
27712;BME280;2377;51.734;8.950;2023-11-21T02:54:21;97289.72;;;7.39;100.00
27712;BME280;2377;51.734;8.950;2023-11-21T02:56:48;97304.97;;;7.39;100.00
27712;BME280;2377;51.734;8.950;2023-11-21T02:59:18;97305.75;;;7.40;100.00
27712;BME280;2377;51.734;8.950;2023-11-21T03:01:45;97309.47;;;7.37;100.00
27712;BME280;2377;51.734;8.950;2023-11-21T03:04:13;97303.81;;;7.35;100.00
27712;BME280;2377;51.734;8.950;2023-11-21T03:06:43;97308.91;;;7.35;100.00
27712;BME280;2377;51.734;8.950;2023-11-21T03:09:11;97306.59;;;7.34;100.00
27712;BME280;2377;51.734;8.950;2023-11-21T03:11:40;97314.97;;;7.34;100.00
27712;BME280;2377;51.734;8.950;2023-11-21T03:14:07;97317.09;;;7.37;100.00
27712;BME280;2377;51.734;8.950;2023-11-21T03:16:36;97315.34;;;7.38;100.00
27712;BME280;2377;51.734;8.950;2023-11-21T03:19:04;97320.22;;;7.39;100.00
27712;BME280;2377;51.734;8.950;2023-11-21T03:21:31;97331.56;;;7.44;100.00
27712;BME280;2377;51.734;8.950;2023-11-21T03:24:02;97332.69;;;7.48;100.00
27712;BME280;2377;51.734;8.950;2023-11-21T03:26:29;97332.13;;;7.46;100.00
27712;BME280;2377;51.734;8.950;2023-11-21T03:28:56;97336.41;;;7.45;100.00
27712;BME280;2377;51.734;8.950;2023-11-21T03:31:23;97344.84;;;7.46;100.00
27712;BME280;2377;51.734;8.950;2023-11-21T03:33:52;97351.06;;;7.50;100.00
27712;BME280;2377;51.734;8.950;2023-11-21T03:36:19;97354.19;;;7.52;100.00
27712;BME280;2377;51.734;8.950;2023-11-21T03:38:48;97353.00;;;7.54;100.00
27712;BME280;2377;51.734;8.950;2023-11-21T03:41:17;97354.56;;;7.55;100.00
27712;BME280;2377;51.734;8.950;2023-11-21T03:43:44;97346.94;;;7.55;100.00
27712;BME280;2377;51.734;8.950;2023-11-21T03:46:11;97350.84;;;7.58;100.00
27712;BME280;2377;51.734;8.950;2023-11-21T03:48:39;97354.53;;;7.62;100.00
27712;BME280;2377;51.734;8.950;2023-11-21T03:51:09;97359.63;;;7.62;100.00
27712;BME280;2377;51.734;8.950;2023-11-21T03:53:36;97356.66;;;7.65;100.00
27712;BME280;2377;51.734;8.950;2023-11-21T03:56:04;97351.16;;;7.68;100.00
27712;BME280;2377;51.734;8.950;2023-11-21T03:58:31;97364.66;;;7.69;100.00
27712;BME280;2377;51.734;8.950;2023-11-21T04:00:59;97359.56;;;7.69;100.00
27712;BME280;2377;51.734;8.950;2023-11-21T04:03:27;97361.50;;;7.73;100.00
27712;BME280;2377;51.734;8.950;2023-11-21T04:05:54;97371.69;;;7.73;100.00
27712;BME280;2377;51.734;8.950;2023-11-21T04:08:23;97375.03;;;7.74;100.00
27712;BME280;2377;51.734;8.950;2023-11-21T04:10:51;97374.81;;;7.75;100.00
27712;BME280;2377;51.734;8.950;2023-11-21T04:13:21;97380.28;;;7.79;100.00
27712;BME280;2377;51.734;8.950;2023-11-21T04:15:49;97379.50;;;7.78;100.00
27712;BME280;2377;51.734;8.950;2023-11-21T04:18:16;97377.50;;;7.80;100.00
27712;BME280;2377;51.734;8.950;2023-11-21T04:20:43;97375.53;;;7.82;100.00
27712;BME280;2377;51.734;8.950;2023-11-21T04:23:10;97380.25;;;7.86;100.00
27712;BME280;2377;51.734;8.950;2023-11-21T04:25:40;97376.69;;;7.87;100.00
27712;BME280;2377;51.734;8.950;2023-11-21T04:28:08;97381.78;;;7.87;100.00
27712;BME280;2377;51.734;8.950;2023-11-21T04:30:35;97383.34;;;7.88;100.00
27712;BME280;2377;51.734;8.950;2023-11-21T04:33:02;97389.22;;;7.88;100.00
27712;BME280;2377;51.734;8.950;2023-11-21T04:35:29;97387.25;;;7.90;100.00
27712;BME280;2377;51.734;8.950;2023-11-21T04:37:56;97388.03;;;7.91;100.00
27712;BME280;2377;51.734;8.950;2023-11-21T04:40:24;97390.94;;;7.94;100.00
27712;BME280;2377;51.734;8.950;2023-11-21T04:42:54;97395.06;;;7.95;100.00
27712;BME280;2377;51.734;8.950;2023-11-21T04:45:23;97396.41;;;7.98;100.00
27712;BME280;2377;51.734;8.950;2023-11-21T04:47:50;97401.28;;;7.99;100.00
27712;BME280;2377;51.734;8.950;2023-11-21T04:50:18;97404.63;;;8.00;100.00
27712;BME280;2377;51.734;8.950;2023-11-21T04:52:46;97400.31;;;8.00;100.00
27712;BME280;2377;51.734;8.950;2023-11-21T04:55:13;97410.47;;;8.00;100.00
27712;BME280;2377;51.734;8.950;2023-11-21T04:57:41;97408.13;;;7.99;100.00
27712;BME280;2377;51.734;8.950;2023-11-21T05:00:11;97416.75;;;7.98;100.00
27712;BME280;2377;51.734;8.950;2023-11-21T05:02:40;97411.44;;;7.99;100.00
27712;BME280;2377;51.734;8.950;2023-11-21T05:05:10;97416.34;;;8.01;100.00
27712;BME280;2377;51.734;8.950;2023-11-21T05:07:38;97416.34;;;8.01;100.00
27712;BME280;2377;51.734;8.950;2023-11-21T05:10:06;97412.63;;;7.97;100.00
27712;BME280;2377;51.734;8.950;2023-11-21T05:12:37;97414.59;;;7.95;100.00
27712;BME280;2377;51.734;8.950;2023-11-21T05:15:06;97416.38;;;7.94;100.00
27712;BME280;2377;51.734;8.950;2023-11-21T05:17:42;97424.78;;;7.95;100.00
27712;BME280;2377;51.734;8.950;2023-11-21T05:20:11;97429.88;;;7.95;100.00
27712;BME280;2377;51.734;8.950;2023-11-21T05:22:40;97421.28;;;7.96;100.00
27712;BME280;2377;51.734;8.950;2023-11-21T05:25:08;97427.72;;;7.98;100.00
27712;BME280;2377;51.734;8.950;2023-11-21T05:27:36;97432.59;;;8.00;100.00
27712;BME280;2377;51.734;8.950;2023-11-21T05:30:05;97436.91;;;7.99;100.00
27712;BME280;2377;51.734;8.950;2023-11-21T05:32:41;97430.84;;;8.00;100.00
27712;BME280;2377;51.734;8.950;2023-11-21T05:35:09;97427.72;;;7.98;100.00
27712;BME280;2377;51.734;8.950;2023-11-21T05:37:41;97434.56;;;7.98;100.00
27712;BME280;2377;51.734;8.950;2023-11-21T05:40:09;97442.97;;;7.98;100.00
27712;BME280;2377;51.734;8.950;2023-11-21T05:42:37;97435.72;;;8.02;100.00
27712;BME280;2377;51.734;8.950;2023-11-21T05:45:05;97428.66;;;8.04;100.00
27712;BME280;2377;51.734;8.950;2023-11-21T05:47:37;97430.63;;;8.02;100.00
27712;BME280;2377;51.734;8.950;2023-11-21T05:50:08;97437.28;;;8.03;100.00
27712;BME280;2377;51.734;8.950;2023-11-21T05:52:41;97440.81;;;8.02;100.00
27712;BME280;2377;51.734;8.950;2023-11-21T05:55:09;97446.31;;;7.99;100.00
27712;BME280;2377;51.734;8.950;2023-11-21T05:57:42;97449.63;;;7.99;100.00
27712;BME280;2377;51.734;8.950;2023-11-21T06:00:13;97447.28;;;7.98;100.00
27712;BME280;2377;51.734;8.950;2023-11-21T06:02:46;97445.53;;;7.98;100.00
27712;BME280;2377;51.734;8.950;2023-11-21T06:05:21;97453.75;;;8.00;100.00
27712;BME280;2377;51.734;8.950;2023-11-21T06:07:50;97442.38;;;8.03;100.00
27712;BME280;2377;51.734;8.950;2023-11-21T06:10:20;97449.59;;;8.06;100.00
27712;BME280;2377;51.734;8.950;2023-11-21T06:12:49;97451.34;;;8.05;100.00
27712;BME280;2377;51.734;8.950;2023-11-21T06:15:18;97452.13;;;8.06;100.00
27712;BME280;2377;51.734;8.950;2023-11-21T06:17:49;97452.13;;;8.06;100.00
27712;BME280;2377;51.734;8.950;2023-11-21T06:20:20;97458.78;;;8.07;100.00
27712;BME280;2377;51.734;8.950;2023-11-21T06:22:48;97465.44;;;8.08;100.00
27712;BME280;2377;51.734;8.950;2023-11-21T06:25:16;97467.41;;;8.06;100.00
27712;BME280;2377;51.734;8.950;2023-11-21T06:27:46;97470.94;;;8.05;100.00
27712;BME280;2377;51.734;8.950;2023-11-21T06:30:15;97479.94;;;8.08;100.00
27712;BME280;2377;51.734;8.950;2023-11-21T06:32:45;97480.34;;;8.04;100.00
27712;BME280;2377;51.734;8.950;2023-11-21T06:35:14;97490.53;;;8.04;100.00
27712;BME280;2377;51.734;8.950;2023-11-21T06:37:46;97490.88;;;8.08;100.00
27712;BME280;2377;51.734;8.950;2023-11-21T06:40:14;97499.13;;;8.03;100.00
27712;BME280;2377;51.734;8.950;2023-11-21T06:42:42;97497.16;;;8.05;100.00
27712;BME280;2377;51.734;8.950;2023-11-21T06:45:10;97503.03;;;8.06;100.00
27712;BME280;2377;51.734;8.950;2023-11-21T06:47:40;97498.34;;;8.10;100.00
27712;BME280;2377;51.734;8.950;2023-11-21T06:50:23;97498.69;;;8.13;100.00
27712;BME280;2377;51.734;8.950;2023-11-21T06:52:55;97509.69;;;8.14;100.00
27712;BME280;2377;51.734;8.950;2023-11-21T06:55:22;97516.31;;;8.15;100.00
27712;BME280;2377;51.734;8.950;2023-11-21T06:57:49;97516.13;;;8.16;100.00
27712;BME280;2377;51.734;8.950;2023-11-21T07:00:18;97519.63;;;8.15;100.00
27712;BME280;2377;51.734;8.950;2023-11-21T07:02:45;97524.94;;;8.14;100.00
27712;BME280;2377;51.734;8.950;2023-11-21T07:05:15;97526.69;;;8.13;100.00
27712;BME280;2377;51.734;8.950;2023-11-21T07:07:46;97534.13;;;8.15;100.00
27712;BME280;2377;51.734;8.950;2023-11-21T07:10:19;97531.97;;;8.18;100.00
27712;BME280;2377;51.734;8.950;2023-11-21T07:12:46;97539.97;;;8.22;100.00
27712;BME280;2377;51.734;8.950;2023-11-21T07:15:13;97542.09;;;8.25;100.00
27712;BME280;2377;51.734;8.950;2023-11-21T07:17:42;97546.00;;;8.27;100.00
27712;BME280;2377;51.734;8.950;2023-11-21T07:20:11;97550.91;;;8.29;100.00
27712;BME280;2377;51.734;8.950;2023-11-21T07:22:39;97555.81;;;8.31;100.00
27712;BME280;2377;51.734;8.950;2023-11-21T07:25:09;97558.34;;;8.31;100.00
27712;BME280;2377;51.734;8.950;2023-11-21T07:27:39;97554.81;;;8.32;100.00
27712;BME280;2377;51.734;8.950;2023-11-21T07:30:11;97563.63;;;8.29;100.00
27712;BME280;2377;51.734;8.950;2023-11-21T07:32:39;97558.53;;;8.29;100.00
27712;BME280;2377;51.734;8.950;2023-11-21T07:35:08;97565.59;;;8.27;100.00
27712;BME280;2377;51.734;8.950;2023-11-21T07:37:44;97559.72;;;8.26;100.00
27712;BME280;2377;51.734;8.950;2023-11-21T07:40:14;97564.41;;;8.30;100.00
27712;BME280;2377;51.734;8.950;2023-11-21T07:42:44;97567.19;;;8.28;100.00
27712;BME280;2377;51.734;8.950;2023-11-21T07:45:12;97572.47;;;8.26;100.00
27712;BME280;2377;51.734;8.950;2023-11-21T07:47:39;97569.72;;;8.28;100.00
27712;BME280;2377;51.734;8.950;2023-11-21T07:50:08;97575.00;;;8.26;100.00
27712;BME280;2377;51.734;8.950;2023-11-21T07:52:36;97583.41;;;8.27;100.00
27712;BME280;2377;51.734;8.950;2023-11-21T07:55:04;97586.75;;;8.27;100.00
27712;BME280;2377;51.734;8.950;2023-11-21T07:57:33;97592.41;;;8.30;100.00
27712;BME280;2377;51.734;8.950;2023-11-21T08:00:02;97596.94;;;8.27;100.00
27712;BME280;2377;51.734;8.950;2023-11-21T08:02:32;97603.44;;;8.23;100.00
27712;BME280;2377;51.734;8.950;2023-11-21T08:05:00;97608.53;;;8.23;100.00
27712;BME280;2377;51.734;8.950;2023-11-21T08:07:27;97600.88;;;8.23;100.00
27712;BME280;2377;51.734;8.950;2023-11-21T08:09:55;97603.19;;;8.25;100.00
27712;BME280;2377;51.734;8.950;2023-11-21T08:12:22;97608.91;;;8.20;100.00
27712;BME280;2377;51.734;8.950;2023-11-21T08:14:49;97613.03;;;8.21;100.00
27712;BME280;2377;51.734;8.950;2023-11-21T08:17:18;97610.25;;;8.23;100.00
27712;BME280;2377;51.734;8.950;2023-11-21T08:19:49;97607.94;;;8.21;100.00
27712;BME280;2377;51.734;8.950;2023-11-21T08:22:17;97615.16;;;8.24;100.00
27712;BME280;2377;51.734;8.950;2023-11-21T08:24:45;97619.66;;;8.22;100.00
27712;BME280;2377;51.734;8.950;2023-11-21T08:27:12;97620.44;;;8.23;100.00
27712;BME280;2377;51.734;8.950;2023-11-21T08:29:43;97622.03;;;8.24;100.00
27712;BME280;2377;51.734;8.950;2023-11-21T08:32:11;97624.38;;;8.25;100.00
27712;BME280;2377;51.734;8.950;2023-11-21T08:34:39;97627.28;;;8.29;100.00
27712;BME280;2377;51.734;8.950;2023-11-21T08:37:08;97625.31;;;8.31;100.00
27712;BME280;2377;51.734;8.950;2023-11-21T08:39:37;97620.41;;;8.30;100.00
27712;BME280;2377;51.734;8.950;2023-11-21T08:42:04;97622.00;;;8.31;100.00
27712;BME280;2377;51.734;8.950;2023-11-21T08:44:32;97618.09;;;8.28;100.00
27712;BME280;2377;51.734;8.950;2023-11-21T08:46:59;97624.38;;;8.25;100.00
27712;BME280;2377;51.734;8.950;2023-11-21T08:49:26;97631.03;;;8.26;100.00
27712;BME280;2377;51.734;8.950;2023-11-21T08:51:57;97632.97;;;8.31;100.00
27712;BME280;2377;51.734;8.950;2023-11-21T08:54:25;97634.91;;;8.36;100.00
27712;BME280;2377;51.734;8.950;2023-11-21T08:56:53;97634.91;;;8.36;100.00
27712;BME280;2377;51.734;8.950;2023-11-21T08:59:21;97643.13;;;8.38;100.00
27712;BME280;2377;51.734;8.950;2023-11-21T09:01:48;97646.28;;;8.40;100.00
27712;BME280;2377;51.734;8.950;2023-11-21T09:04:16;97646.28;;;8.40;100.00
27712;BME280;2377;51.734;8.950;2023-11-21T09:06:43;97648.41;;;8.43;100.00
27712;BME280;2377;51.734;8.950;2023-11-21T09:09:13;97656.47;;;8.40;100.00
27712;BME280;2377;51.734;8.950;2023-11-21T09:11:40;97660.97;;;8.38;100.00
27712;BME280;2377;51.734;8.950;2023-11-21T09:14:11;97659.97;;;8.39;100.00
27712;BME280;2377;51.734;8.950;2023-11-21T09:16:45;97661.16;;;8.43;100.00
27712;BME280;2377;51.734;8.950;2023-11-21T09:19:14;97664.28;;;8.45;100.00
27712;BME280;2377;51.734;8.950;2023-11-21T09:21:42;97670.75;;;8.48;100.00
27712;BME280;2377;51.734;8.950;2023-11-21T09:24:09;97673.88;;;8.50;100.00
27712;BME280;2377;51.734;8.950;2023-11-21T09:26:38;97678.97;;;8.50;100.00
27712;BME280;2377;51.734;8.950;2023-11-21T09:29:07;97682.28;;;8.50;100.00
27712;BME280;2377;51.734;8.950;2023-11-21T09:31:36;97687.56;;;8.49;100.00
27712;BME280;2377;51.734;8.950;2023-11-21T09:34:05;97688.19;;;8.44;100.00
27712;BME280;2377;51.734;8.950;2023-11-21T09:36:33;97694.06;;;8.44;100.00
27712;BME280;2377;51.734;8.950;2023-11-21T09:39:00;97693.69;;;8.41;100.00
27712;BME280;2377;51.734;8.950;2023-11-21T09:41:46;97694.84;;;8.38;100.00
27712;BME280;2377;51.734;8.950;2023-11-21T09:44:20;97694.06;;;8.38;100.00
27712;BME280;2377;51.734;8.950;2023-11-21T09:46:51;97698.56;;;8.36;100.00
27712;BME280;2377;51.734;8.950;2023-11-21T09:49:23;97697.38;;;8.38;100.00
27712;BME280;2377;51.734;8.950;2023-11-21T09:51:55;97698.78;;;8.41;100.00
27712;BME280;2377;51.734;8.950;2023-11-21T09:54:29;97704.03;;;8.39;100.00
27712;BME280;2377;51.734;8.950;2023-11-21T09:57:00;97706.41;;;8.41;100.00
27712;BME280;2377;51.734;8.950;2023-11-21T09:59:30;97715.63;;;8.42;100.00
27712;BME280;2377;51.734;8.950;2023-11-21T10:01:58;97712.09;;;8.43;100.00
27712;BME280;2377;51.734;8.950;2023-11-21T10:04:28;97717.59;;;8.40;100.00
27712;BME280;2377;51.734;8.950;2023-11-21T10:06:56;97718.53;;;8.39;100.00
27712;BME280;2377;51.734;8.950;2023-11-21T10:09:25;97715.06;;;8.40;100.00
27712;BME280;2377;51.734;8.950;2023-11-21T10:11:53;97720.16;;;8.40;100.00
27712;BME280;2377;51.734;8.950;2023-11-21T10:14:26;97718.53;;;8.39;100.00
27712;BME280;2377;51.734;8.950;2023-11-21T10:16:56;97726.16;;;8.39;100.00
27712;BME280;2377;51.734;8.950;2023-11-21T10:19:25;97727.78;;;8.40;100.00
27712;BME280;2377;51.734;8.950;2023-11-21T10:21:53;97724.25;;;8.41;100.00
27712;BME280;2377;51.734;8.950;2023-11-21T10:24:21;97719.72;;;8.43;100.00
27712;BME280;2377;51.734;8.950;2023-11-21T10:26:50;97731.25;;;8.39;100.00
27712;BME280;2377;51.734;8.950;2023-11-21T10:29:18;97731.47;;;8.37;100.00
27712;BME280;2377;51.734;8.950;2023-11-21T10:31:51;97728.72;;;8.39;100.00
27712;BME280;2377;51.734;8.950;2023-11-21T10:34:24;97731.88;;;8.41;100.00
27712;BME280;2377;51.734;8.950;2023-11-21T10:36:53;97731.69;;;8.42;100.00
27712;BME280;2377;51.734;8.950;2023-11-21T10:39:24;97736.97;;;8.41;100.00
27712;BME280;2377;51.734;8.950;2023-11-21T10:41:55;97749.09;;;8.39;100.00
27712;BME280;2377;51.734;8.950;2023-11-21T10:44:22;97740.69;;;8.38;100.00
27712;BME280;2377;51.734;8.950;2023-11-21T10:46:55;97744.78;;;8.39;100.00
27712;BME280;2377;51.734;8.950;2023-11-21T10:49:24;97753.25;;;8.40;100.00
27712;BME280;2377;51.734;8.950;2023-11-21T10:51:54;97755.97;;;8.38;100.00
27712;BME280;2377;51.734;8.950;2023-11-21T10:54:22;97761.47;;;8.35;100.00
27712;BME280;2377;51.734;8.950;2023-11-21T10:56:56;97759.88;;;8.34;100.00
27712;BME280;2377;51.734;8.950;2023-11-21T10:59:29;97758.91;;;8.35;100.00
27712;BME280;2377;51.734;8.950;2023-11-21T11:02:00;97754.59;;;8.36;100.00
27712;BME280;2377;51.734;8.950;2023-11-21T11:04:29;97756.16;;;8.37;100.00
27712;BME280;2377;51.734;8.950;2023-11-21T11:07:01;97761.81;;;8.39;100.00
27712;BME280;2377;51.734;8.950;2023-11-21T11:09:31;97755.19;;;8.38;100.00
27712;BME280;2377;51.734;8.950;2023-11-21T11:12:03;97753.59;;;8.37;100.00
27712;BME280;2377;51.734;8.950;2023-11-21T11:14:32;97753.81;;;8.35;100.00
27712;BME280;2377;51.734;8.950;2023-11-21T11:17:02;97758.34;;;8.40;100.00
27712;BME280;2377;51.734;8.950;2023-11-21T11:19:36;97755.19;;;8.38;100.00
27712;BME280;2377;51.734;8.950;2023-11-21T11:22:19;97751.63;;;8.39;100.00
27712;BME280;2377;51.734;8.950;2023-11-21T11:25:16;97753.59;;;8.37;100.00
27712;BME280;2377;51.734;8.950;2023-11-21T11:27:54;97764.78;;;8.36;100.00
27712;BME280;2377;51.734;8.950;2023-11-21T11:30:41;97762.22;;;8.36;100.00
27712;BME280;2377;51.734;8.950;2023-11-21T11:33:34;97772.41;;;8.36;100.00
27712;BME280;2377;51.734;8.950;2023-11-21T11:36:10;97774.56;;;8.32;100.00
27712;BME280;2377;51.734;8.950;2023-11-21T11:38:46;97778.69;;;8.26;100.00
27712;BME280;2377;51.734;8.950;2023-11-21T11:41:25;97777.16;;;8.19;100.00
27712;BME280;2377;51.734;8.950;2023-11-21T11:44:52;97793.19;;;8.19;100.00
27712;BME280;2377;51.734;8.950;2023-11-21T11:47:26;97784.00;;;8.18;100.00
27712;BME280;2377;51.734;8.950;2023-11-21T11:50:04;97786.56;;;8.18;100.00
27712;BME280;2377;51.734;8.950;2023-11-21T11:52:42;97795.56;;;8.21;100.00
27712;BME280;2377;51.734;8.950;2023-11-21T11:55:11;97786.16;;;8.15;100.00
27712;BME280;2377;51.734;8.950;2023-11-21T11:57:42;97794.38;;;8.10;100.00
27712;BME280;2377;51.734;8.950;2023-11-21T12:00:16;97796.13;;;8.10;100.00
27712;BME280;2377;51.734;8.950;2023-11-21T12:02:50;97805.31;;;8.04;100.00
27712;BME280;2377;51.734;8.950;2023-11-21T12:05:21;97803.59;;;8.04;100.00
27712;BME280;2377;51.734;8.950;2023-11-21T12:07:52;97808.88;;;8.03;100.00
27712;BME280;2377;51.734;8.950;2023-11-21T12:10:22;97808.06;;;7.96;100.00
27712;BME280;2377;51.734;8.950;2023-11-21T12:12:52;97813.56;;;7.93;100.00
27712;BME280;2377;51.734;8.950;2023-11-21T12:15:20;97815.53;;;7.97;100.00
27712;BME280;2377;51.734;8.950;2023-11-21T12:17:49;97817.47;;;7.95;100.00
27712;BME280;2377;51.734;8.950;2023-11-21T12:20:22;97820.59;;;7.91;100.00
27712;BME280;2377;51.734;8.950;2023-11-21T12:22:52;97819.81;;;7.83;100.00
27712;BME280;2377;51.734;8.950;2023-11-21T12:25:21;97832.72;;;7.82;100.00
27712;BME280;2377;51.734;8.950;2023-11-21T12:27:56;97826.88;;;7.88;100.00
27712;BME280;2377;51.734;8.950;2023-11-21T12:30:27;97835.47;;;7.87;100.00
27712;BME280;2377;51.734;8.950;2023-11-21T12:32:58;97838.59;;;7.82;100.00
27712;BME280;2377;51.734;8.950;2023-11-21T12:35:30;97835.84;;;7.77;100.00
27712;BME280;2377;51.734;8.950;2023-11-21T12:38:02;97849.56;;;7.76;100.00
27712;BME280;2377;51.734;8.950;2023-11-21T12:40:31;97843.88;;;7.74;100.00
27712;BME280;2377;51.734;8.950;2023-11-21T12:43:01;97847.97;;;7.75;100.00
27712;BME280;2377;51.734;8.950;2023-11-21T12:45:30;97852.09;;;7.76;100.00
27712;BME280;2377;51.734;8.950;2023-11-21T12:48:03;97856.03;;;7.79;100.00
27712;BME280;2377;51.734;8.950;2023-11-21T12:50:35;97857.78;;;7.78;100.00
27712;BME280;2377;51.734;8.950;2023-11-21T12:53:07;97866.78;;;7.74;100.00
27712;BME280;2377;51.734;8.950;2023-11-21T12:55:36;97870.84;;;7.69;100.00
27712;BME280;2377;51.734;8.950;2023-11-21T12:58:07;97873.41;;;7.62;100.00
27712;BME280;2377;51.734;8.950;2023-11-21T13:00:42;97877.66;;;7.55;100.00
27712;BME280;2377;51.734;8.950;2023-11-21T13:03:13;97885.06;;;7.50;100.00
27712;BME280;2377;51.734;8.950;2023-11-21T13:05:46;97889.34;;;7.43;100.00
27712;BME280;2377;51.734;8.950;2023-11-21T13:08:17;97886.81;;;7.43;100.00
27712;BME280;2377;51.734;8.950;2023-11-21T13:10:52;97887.78;;;7.41;100.00
27712;BME280;2377;51.734;8.950;2023-11-21T13:13:21;97890.94;;;7.44;100.00
27712;BME280;2377;51.734;8.950;2023-11-21T13:15:52;97886.25;;;7.47;100.00
27712;BME280;2377;51.734;8.950;2023-11-21T13:18:22;97885.88;;;7.50;100.00
27712;BME280;2377;51.734;8.950;2023-11-21T13:20:52;97891.31;;;7.47;100.00
27712;BME280;2377;51.734;8.950;2023-11-21T13:23:22;97902.50;;;7.46;100.00